Aérodrome :
LOGIN :

S'inscrire | Disclaimer

   EN    FR    IT 

 










Légende :    VFR   VFR Marginal   IFR   IFR Intensif   IFR Très Intensif
Visi : 
Plafond : 
>= 8 km
>= 3000ft
5 à 8 km
1000 à 3000 ft
1500m à 5 km
500 à 1000 ft
800 à 1500m
200 à 500 ft
< 800m
< 200 ft
Symboles :   Orages  Brouillard  Fortes neiges  Fortes précipitations  Vent > 20 kt
SIGMETs :   Divers  Orages  Givrage  Turbulence  Onde Orograph.  Cendres Volcan.







- Altitude de l'aérodrome : 37 ft
- Code IATA : FRO


ENFL - Florø

DERNIER METAR :
  • 231620Z 32020KT 9999 FEW020TCU SCT035 06/01 Q1005

METARs EXPIRÉS :
  • 231550Z 32021G31KT 9999 -SHRASN FEW018CB SCT025TCU SCT035 05/01 Q1005
  • 231520Z 32024G36KT 9999 -SHRA FEW015CB SCT025TCU BKN032 05/02 Q1005
  • 231450Z 32022KT 9999 -SHRAGS FEW020CB FEW025TCU SCT035 07/01 Q1004
  • 231420Z 30024G36KT 9999 -SHRA FEW015CB SCT025TCU BKN035 06/01 Q1004
  • 231350Z 32015G32KT 300V360 9999 -SHRA FEW020 SCT025 BKN045 07/02 Q1004

TAF TAF ENFL
Valide du 23 à 15h jusqu'au 23 à 20h UTC


231400Z 2315/2320 32015KT 9999 -SHRA FEW012TCU BKN030
TEMPO 2315/2320 32022G32KT SHRA BKN014CB
Pas de NOTAMs connus pour ce terrain.
3 SIGMETs publiés pour la FIR Norway (ENOR) :
 
Turbulence forte
ENSV SIGMET B05 VALID 231400/231800 ENVV
ENOR NORWAY FIR SEV TURB FCST WI N5900 E00730 - N6300 E00100 - N6300 E00400 - N6200 E00500 - N6200 E00730 - N5900 E00730 FL210/400 MOV NE 10KT NC=
Turbulence forte
ENOS SIGMET A07 VALID 231400/231800 ENMI
ENOR NORWAY FIR SEV TURB FCST WI N5900 E00730 - N6200 E00730 - N6200 E01130 - N5900 E01200 - N5740 E00845 - N5900 E00730 FL200/420 MOV NE 10KT NC=
Turbulence forte
ENBD SIGMET C03 VALID 231400/231800 ENVV
ENOR NORWAY FIR SEV TURB FCST WI N6200 E00500 - N6300 E00400 - N6445 E00550 - N6200 E01100 - N6200 E00500 FL210/400 MOV NE 10KT NC=



MET'MAP, la Météo Aéronautique d'un coup d'oeil ! - Copyright ORBIFLY Décembre 2007 - Disclaimer

ORBIFLY MET'MAP TEAM :

Programmation & Développement : Alexandra Zaïnal
Conception & Développement : Baudouin d'Aumeries
Co-Programmation & Développement : Marc-Olivier Méhu
Soutien technique & logistique : Manuel Goepfert

Contact : metmap@orbifly.com




SOURCES & CREDITS :

   NOAA